Time;durP1;ratioP1;P1;durP2;ratioP2;P2;SDS_P1;SDS_P2;PMS_P1;PMS_P2;Temp;Humidity;BMP_temperature;BMP_pressure;BME280_temperature;BME280_humidity;BME280_pressure;Samples;Min_cycle;Max_cycle;Signal;HPM_P1;HPM_P2
2022/12/12 00:00:53;;;;;;;28.75;22.67;;;-0.40;99.90;;;;;;6089535;23;20188;-80
2022/12/12 00:03:20;;;;;;;31.10;22.50;;;-0.40;99.90;;;;;;6090929;23;20219;-80
2022/12/12 00:05:47;;;;;;;32.85;22.77;;;-0.40;99.90;;;;;;6095750;23;20196;-81
2022/12/12 00:08:16;;;;;;;27.58;21.50;;;-0.40;99.90;;;;;;6095198;23;20263;-79
2022/12/12 00:10:43;;;;;;;31.33;22.83;;;-0.40;99.90;;;;;;6095653;23;20584;-80
2022/12/12 00:13:12;;;;;;;27.38;21.60;;;-0.30;99.90;;;;;;6101320;23;20606;-80
2022/12/12 00:15:40;;;;;;;30.73;22.50;;;-0.30;99.90;;;;;;6102117;23;20220;-81
2022/12/12 00:18:08;;;;;;;29.33;21.55;;;-0.30;99.90;;;;;;6089789;23;20287;-79
2022/12/12 00:20:35;;;;;;;29.95;21.45;;;-0.30;99.90;;;;;;6102557;23;20213;-80
2022/12/12 00:23:03;;;;;;;31.67;23.48;;;-0.30;99.90;;;;;;6096433;23;20555;-80
2022/12/12 00:25:32;;;;;;;28.33;21.38;;;-0.30;99.90;;;;;;6095110;23;20190;-82
2022/12/12 00:28:01;;;;;;;28.33;21.63;;;-0.30;99.90;;;;;;6102954;23;21673;-80
2022/12/12 00:30:28;;;;;;;30.70;20.92;;;-0.20;99.90;;;;;;6102306;23;20248;-81
2022/12/12 00:32:55;;;;;;;29.98;22.77;;;-0.20;99.90;;;;;;6073893;23;20297;-80
2022/12/12 00:35:24;;;;;;;30.48;22.42;;;-0.20;99.90;;;;;;6097743;23;20609;-80
2022/12/12 00:37:52;;;;;;;26.63;20.20;;;-0.20;99.90;;;;;;6099183;23;20272;-80
2022/12/12 00:40:21;;;;;;;27.52;20.98;;;-0.20;99.90;;;;;;6088401;23;20196;-81
2022/12/12 00:42:48;;;;;;;30.83;22.15;;;-0.20;99.90;;;;;;6089731;23;20204;-80
2022/12/12 00:45:15;;;;;;;28.88;21.98;;;-0.20;99.90;;;;;;6088661;23;20184;-80
2022/12/12 00:47:44;;;;;;;30.70;21.60;;;-0.10;99.90;;;;;;6089712;23;20262;-80
2022/12/12 00:50:12;;;;;;;25.60;19.42;;;-0.10;99.90;;;;;;6084986;23;20232;-80
2022/12/12 00:52:40;;;;;;;24.27;18.83;;;-0.10;99.90;;;;;;6083264;23;20273;-80
2022/12/12 00:55:10;;;;;;;26.83;19.13;;;0.00;99.90;;;;;;6094220;23;20612;-81
2022/12/12 00:57:38;;;;;;;26.00;18.98;;;0.00;99.90;;;;;;6091949;23;20197;-80
2022/12/12 01:00:07;;;;;;;25.15;18.50;;;0.00;99.90;;;;;;6105824;23;20260;-80
2022/12/12 01:02:34;;;;;;;29.98;21.25;;;0.00;99.90;;;;;;6099449;23;21447;-81
2022/12/12 01:05:03;;;;;;;27.90;20.27;;;-0.10;99.90;;;;;;6084784;23;20235;-80
2022/12/12 01:07:30;;;;;;;27.63;21.33;;;-0.10;99.90;;;;;;6097362;23;20193;-81
2022/12/12 01:10:00;;;;;;;27.35;20.58;;;-0.20;99.90;;;;;;6096189;23;20188;-80
2022/12/12 01:12:27;;;;;;;28.70;20.60;;;-0.20;99.90;;;;;;6091836;23;20227;-80
2022/12/12 01:14:54;;;;;;;25.60;18.52;;;-0.30;99.90;;;;;;6090409;23;20228;-80
2022/12/12 01:17:21;;;;;;;26.35;20.67;;;-0.30;99.90;;;;;;6089559;23;20187;-80
2022/12/12 01:19:49;;;;;;;26.00;20.30;;;-0.40;99.90;;;;;;6102129;23;20219;-81
2022/12/12 01:22:16;;;;;;;27.33;19.10;;;-0.40;99.90;;;;;;6084198;23;20204;-80
2022/12/12 01:24:43;;;;;;;27.80;19.77;;;-0.40;99.90;;;;;;6091965;23;20211;-80
2022/12/12 01:27:12;;;;;;;26.42;19.92;;;-0.40;99.90;;;;;;6103132;23;20192;-80
2022/12/12 01:29:40;;;;;;;27.00;19.77;;;-0.40;99.90;;;;;;6096819;23;20188;-80
2022/12/12 01:32:08;;;;;;;26.55;19.58;;;-0.30;99.90;;;;;;6089888;23;20218;-80
2022/12/12 01:34:35;;;;;;;25.90;19.90;;;-0.30;99.90;;;;;;6094946;23;20267;-80
2022/12/12 01:37:04;;;;;;;25.15;19.75;;;-0.30;99.90;;;;;;6096347;23;20629;-80
2022/12/12 01:39:31;;;;;;;28.83;20.33;;;-0.20;99.90;;;;;;6097949;23;20200;-80
2022/12/12 01:41:58;;;;;;;28.42;20.98;;;-0.20;99.90;;;;;;6090277;23;20264;-80
2022/12/12 01:44:42;;;;;;;25.40;19.63;;;-0.20;99.90;;;;;;6090449;23;20210;-80
2022/12/12 01:47:12;;;;;;;27.00;19.67;;;-0.20;99.90;;;;;;6087125;23;20267;-80
2022/12/12 01:49:40;;;;;;;25.67;18.98;;;-0.20;99.90;;;;;;6079467;23;20185;-80
2022/12/12 01:52:11;;;;;;;24.50;18.95;;;-0.20;99.90;;;;;;6087878;23;20203;-80
2022/12/12 01:54:42;;;;;;;25.75;19.45;;;-0.20;99.90;;;;;;6094968;23;20200;-80
2022/12/12 01:57:18;;;;;;;25.13;18.63;;;-0.30;99.90;;;;;;6095872;23;20189;-80
2022/12/12 01:59:47;;;;;;;22.75;17.38;;;-0.30;99.90;;;;;;6066980;23;20720;-80
2022/12/12 02:02:14;;;;;;;22.80;17.00;;;-0.40;99.90;;;;;;6094093;23;20204;-80
2022/12/12 02:04:42;;;;;;;20.73;16.45;;;-0.40;99.90;;;;;;6088871;23;20208;-80
2022/12/12 02:07:10;;;;;;;25.27;17.40;;;-0.50;99.90;;;;;;6099579;23;20297;-81
2022/12/12 02:09:38;;;;;;;24.77;18.85;;;-0.50;99.90;;;;;;6095326;23;20215;-81
2022/12/12 02:12:05;;;;;;;22.00;16.67;;;-0.30;99.90;;;;;;6095107;23;20212;-80
2022/12/12 02:14:38;;;;;;;23.85;17.65;;;-0.60;99.90;;;;;;6098304;23;20192;-81
2022/12/12 02:17:35;;;;;;;21.60;15.98;;;-0.60;99.90;;;;;;6100079;23;20211;-80
2022/12/12 02:20:35;;;;;;;21.35;17.00;;;-0.70;99.90;;;;;;6089701;23;20192;-80
2022/12/12 02:23:33;;;;;;;24.02;18.55;;;-0.60;99.90;;;;;;6074118;23;20238;-81
2022/12/12 02:26:27;;;;;;;19.92;15.70;;;-0.80;99.90;;;;;;6098587;23;20187;-80
2022/12/12 02:29:16;;;;;;;21.58;16.52;;;-0.90;99.90;;;;;;6100909;23;20219;-81
2022/12/12 02:31:53;;;;;;;23.00;15.93;;;-0.90;99.90;;;;;;6091124;23;20203;-80
2022/12/12 02:34:30;;;;;;;24.05;16.90;;;-1.00;99.90;;;;;;6091933;23;20184;-80
2022/12/12 02:37:06;;;;;;;21.83;15.23;;;-1.00;99.90;;;;;;6073210;23;20215;-80
2022/12/12 02:39:41;;;;;;;22.70;16.27;;;-1.00;99.90;;;;;;6060147;23;20249;-81
2022/12/12 02:42:21;;;;;;;23.60;16.63;;;-1.00;99.90;;;;;;6088287;23;20211;-81
2022/12/12 02:44:55;;;;;;;21.40;15.82;;;-1.00;99.90;;;;;;6087820;23;20215;-81
2022/12/12 02:47:28;;;;;;;23.27;16.85;;;-1.10;99.90;;;;;;6091878;23;20198;-81
2022/12/12 02:50:01;;;;;;;21.58;16.10;;;-1.10;99.90;;;;;;6090138;23;20192;-80
2022/12/12 02:52:31;;;;;;;23.40;17.17;;;-1.10;99.90;;;;;;6090641;23;20202;-81
2022/12/12 02:55:00;;;;;;;22.88;16.48;;;-1.10;99.90;;;;;;6086132;23;20198;-81
2022/12/12 02:57:27;;;;;;;22.10;16.27;;;-1.10;99.90;;;;;;6067427;23;20827;-81
2022/12/12 02:59:57;;;;;;;21.55;17.30;;;-1.10;99.90;;;;;;6091838;23;20199;-81
2022/12/12 03:07:45;;;;;;;23.02;17.98;;;-1.20;99.90;;;;;;6081791;23;20219;-81
2022/12/12 03:08:53;;;;;;;24.85;17.75;;;-1.20;99.90;;;;;;6079831;23;20217;-81
2022/12/12 03:11:30;;;;;;;21.38;16.48;;;-1.30;99.90;;;;;;6084434;23;20199;-81
2022/12/12 03:14:07;;;;;;;24.55;17.77;;;-1.30;99.90;;;;;;6086982;23;20192;-81
2022/12/12 03:16:39;;;;;;;27.45;19.45;;;-1.30;99.90;;;;;;6091887;23;20310;-81
2022/12/12 03:19:12;;;;;;;23.98;18.48;;;-1.40;99.90;;;;;;6088220;23;20245;-81
2022/12/12 03:21:46;;;;;;;25.25;19.20;;;-1.40;99.90;;;;;;6082706;23;20190;-81
2022/12/12 03:24:22;;;;;;;23.02;18.02;;;-1.50;99.90;;;;;;6088467;23;20188;-81
2022/12/12 03:26:54;;;;;;;26.02;19.92;;;-1.50;99.90;;;;;;6090549;23;20230;-81
2022/12/12 03:29:25;;;;;;;24.75;18.98;;;-1.50;99.90;;;;;;6090670;23;20211;-81
2022/12/12 03:32:00;;;;;;;24.67;20.13;;;-1.50;99.90;;;;;;6059312;23;20200;-80
2022/12/12 03:34:37;;;;;;;28.08;20.90;;;-1.60;99.90;;;;;;6082781;23;20243;-81
2022/12/12 03:37:09;;;;;;;25.98;18.50;;;-1.60;99.90;;;;;;6092743;23;20211;-81
2022/12/12 03:39:42;;;;;;;27.30;20.52;;;-1.60;99.90;;;;;;6094895;23;20215;-80
2022/12/12 03:42:14;;;;;;;29.13;20.55;;;-1.60;99.90;;;;;;6084166;23;20187;-80
2022/12/12 03:44:47;;;;;;;26.92;20.45;;;-1.70;99.90;;;;;;6086832;23;20600;-81
2022/12/12 03:47:19;;;;;;;30.15;21.77;;;-1.70;99.90;;;;;;6085001;23;20303;-81
2022/12/12 03:49:51;;;;;;;29.92;21.10;;;-1.70;99.90;;;;;;6086648;23;20270;-81
2022/12/12 03:52:23;;;;;;;32.35;23.52;;;-1.70;99.90;;;;;;6091679;23;20342;-81
2022/12/12 03:54:59;;;;;;;30.88;23.20;;;-1.70;99.90;;;;;;6088762;23;20209;-80
2022/12/12 03:57:30;;;;;;;31.45;23.10;;;-1.70;99.90;;;;;;6089329;23;20208;-81
2022/12/12 04:00:02;;;;;;;30.45;23.52;;;-1.70;99.90;;;;;;6086729;23;20256;-80
2022/12/12 04:02:34;;;;;;;35.15;25.98;;;-1.70;99.90;;;;;;6088895;23;20362;-81
2022/12/12 04:05:13;;;;;;;31.77;24.48;;;-1.70;99.90;;;;;;6070794;23;20192;-81
2022/12/12 04:07:43;;;;;;;31.48;23.33;;;-1.70;99.90;;;;;;6088761;23;20196;-81
2022/12/12 04:13:05;;;;;;;32.78;24.45;;;-1.60;99.90;;;;;;6078307;23;20263;-81
2022/12/12 04:15:55;;;;;;;33.50;24.45;;;-1.60;99.90;;;;;;6089368;23;20184;-80
2022/12/12 04:18:30;;;;;;;32.22;24.25;;;-1.60;99.90;;;;;;6086849;23;20619;-80
2022/12/12 04:23:58;;;;;;;32.53;23.80;;;-1.40;99.90;;;;;;6086042;23;20658;-82
2022/12/12 04:26:39;;;;;;;32.45;23.67;;;-1.40;99.90;;;;;;6085020;23;20192;-81
2022/12/12 04:29:31;;;;;;;32.63;22.88;;;-1.40;99.90;;;;;;6090660;23;20267;-80
2022/12/12 04:32:04;;;;;;;32.42;23.05;;;-1.50;99.90;;;;;;6087585;23;20184;-80
2022/12/12 04:34:38;;;;;;;32.47;23.65;;;-1.50;99.90;;;;;;6101710;23;20188;-82
2022/12/12 04:37:10;;;;;;;29.73;20.48;;;-1.50;99.90;;;;;;6100008;23;20208;-83
2022/12/12 04:39:42;;;;;;;30.42;21.45;;;-1.50;99.90;;;;;;6084155;23;20347;-83
2022/12/12 04:42:14;;;;;;;32.13;23.25;;;-1.50;99.90;;;;;;6090789;23;20215;-80
2022/12/12 04:44:44;;;;;;;28.45;21.38;;;-1.50;99.90;;;;;;6081601;23;20266;-80
2022/12/12 04:47:13;;;;;;;31.52;23.58;;;-1.50;99.90;;;;;;6086615;23;20262;-81
2022/12/12 04:49:43;;;;;;;30.23;21.08;;;-1.60;99.90;;;;;;6070117;23;20839;-80
2022/12/12 04:52:16;;;;;;;26.23;19.73;;;-1.60;99.90;;;;;;6071495;23;20295;-81
2022/12/12 04:54:47;;;;;;;29.17;21.60;;;-1.60;99.90;;;;;;6086741;23;20215;-80
2022/12/12 04:57:20;;;;;;;28.65;20.95;;;-1.60;99.90;;;;;;6090382;23;20215;-81
2022/12/12 04:59:48;;;;;;;29.00;22.00;;;-1.70;99.90;;;;;;6078234;23;20698;-81
2022/12/12 05:02:23;;;;;;;29.00;21.58;;;-1.80;99.90;;;;;;6083650;23;20195;-81
2022/12/12 05:04:56;;;;;;;28.10;20.17;;;-1.90;99.90;;;;;;6078796;23;20191;-81
2022/12/12 05:07:33;;;;;;;30.17;21.10;;;-1.90;99.90;;;;;;6083285;23;20195;-81
2022/12/12 05:10:00;;;;;;;28.05;20.15;;;-1.90;99.90;;;;;;6078956;23;20486;-80
2022/12/12 05:12:27;;;;;;;26.85;21.75;;;-1.90;99.90;;;;;;6082412;23;20254;-81
2022/12/12 05:14:55;;;;;;;30.63;22.35;;;-1.90;99.90;;;;;;6094660;23;20196;-81
2022/12/12 05:17:30;;;;;;;26.70;20.38;;;-1.90;99.90;;;;;;6086678;23;20219;-81
2022/12/12 05:19:59;;;;;;;28.98;21.65;;;-1.60;99.90;;;;;;6086671;23;20198;-80
2022/12/12 05:22:27;;;;;;;30.42;20.98;;;-2.00;99.90;;;;;;6087359;23;20203;-80
2022/12/12 05:24:54;;;;;;;29.40;20.75;;;-2.00;99.90;;;;;;6085956;23;20208;-80
2022/12/12 05:27:22;;;;;;;25.95;20.00;;;-2.00;99.90;;;;;;6086820;23;20200;-80
2022/12/12 05:29:49;;;;;;;26.25;19.80;;;-2.00;99.90;;;;;;6085402;23;20680;-80
2022/12/12 05:32:17;;;;;;;27.55;19.85;;;-2.00;99.90;;;;;;6079951;23;20704;-80
2022/12/12 05:34:45;;;;;;;25.92;19.95;;;-2.00;99.90;;;;;;6088703;23;20531;-80
2022/12/12 05:37:12;;;;;;;28.27;19.98;;;-1.90;99.90;;;;;;6080381;23;20680;-80
2022/12/12 05:39:41;;;;;;;26.80;19.42;;;-1.80;99.90;;;;;;6070969;23;20205;-81
2022/12/12 05:42:09;;;;;;;32.70;20.98;;;-1.80;99.90;;;;;;6061233;23;20602;-81
2022/12/12 05:44:37;;;;;;;26.85;19.33;;;-1.70;99.90;;;;;;6079658;23;20195;-81
2022/12/12 05:47:04;;;;;;;25.00;18.95;;;-1.70;99.90;;;;;;6075957;23;20200;-81
2022/12/12 05:49:31;;;;;;;26.25;19.48;;;-1.60;99.90;;;;;;6092635;23;20198;-80
2022/12/12 05:51:58;;;;;;;28.88;20.30;;;-1.60;99.90;;;;;;6088690;23;20195;-81
2022/12/12 05:54:25;;;;;;;28.10;20.20;;;-1.60;99.90;;;;;;6085987;23;20630;-81
2022/12/12 05:56:54;;;;;;;28.13;20.50;;;-1.60;99.90;;;;;;6077714;23;20334;-80
2022/12/12 05:59:21;;;;;;;26.23;18.67;;;-1.50;99.90;;;;;;6076169;23;20276;-81
2022/12/12 06:01:49;;;;;;;26.75;19.40;;;-1.60;99.90;;;;;;6080652;23;20224;-81
2022/12/12 06:04:17;;;;;;;27.90;20.90;;;-1.60;99.90;;;;;;6083681;23;20713;-81
2022/12/12 06:06:46;;;;;;;27.77;21.13;;;-1.60;99.90;;;;;;6081503;23;20195;-81
2022/12/12 06:09:14;;;;;;;27.27;20.10;;;-1.60;99.90;;;;;;6078405;23;20342;-81
2022/12/12 06:11:41;;;;;;;25.88;19.65;;;-1.60;99.90;;;;;;6083341;23;20198;-81
2022/12/12 06:14:12;;;;;;;24.50;20.20;;;-1.50;99.90;;;;;;6087000;23;20649;-81
2022/12/12 06:16:39;;;;;;;27.35;21.38;;;-1.60;99.90;;;;;;6085568;23;20262;-81
2022/12/12 06:19:07;;;;;;;28.17;20.50;;;-1.60;99.90;;;;;;6087471;23;20279;-80
2022/12/12 06:21:34;;;;;;;28.27;20.30;;;-1.70;99.90;;;;;;6059586;23;20219;-81
2022/12/12 06:24:01;;;;;;;25.65;19.63;;;-1.70;99.90;;;;;;6078842;23;20223;-78
2022/12/12 06:26:29;;;;;;;25.58;18.95;;;-1.70;99.90;;;;;;6072815;23;20291;-81
2022/12/12 06:28:56;;;;;;;26.10;19.25;;;-1.80;99.90;;;;;;6080302;23;20629;-80
2022/12/12 06:31:24;;;;;;;25.08;18.88;;;-1.70;99.90;;;;;;6081479;23;20194;-81
2022/12/12 06:33:51;;;;;;;25.73;19.40;;;-1.70;99.90;;;;;;6075237;23;20249;-81
2022/12/12 06:36:24;;;;;;;27.17;18.73;;;-1.70;99.90;;;;;;6080783;23;20752;-81
2022/12/12 06:38:53;;;;;;;26.30;19.30;;;-1.80;99.90;;;;;;6067762;23;20603;-80
2022/12/12 06:41:24;;;;;;;28.30;19.70;;;-1.80;99.90;;;;;;6059796;23;21097;-81
2022/12/12 06:43:52;;;;;;;25.13;18.77;;;-1.80;99.90;;;;;;6058222;23;20195;-81
2022/12/12 06:46:21;;;;;;;25.85;20.25;;;-1.80;99.90;;;;;;6062559;23;20206;-80
2022/12/12 06:48:51;;;;;;;30.60;21.02;;;-1.80;99.90;;;;;;6074201;23;20195;-80
2022/12/12 06:51:23;;;;;;;26.42;21.67;;;-1.80;99.90;;;;;;6071416;23;20211;-80
2022/12/12 06:53:51;;;;;;;29.05;20.40;;;-1.80;99.90;;;;;;6064472;23;20211;-81
2022/12/12 06:56:20;;;;;;;27.10;21.35;;;-1.80;99.90;;;;;;6066297;23;20196;-81
2022/12/12 06:58:49;;;;;;;27.10;21.25;;;-1.80;99.90;;;;;;6044787;23;20242;-81
2022/12/12 07:01:20;;;;;;;31.30;21.45;;;-1.80;99.90;;;;;;6063923;23;20269;-81
2022/12/12 07:03:50;;;;;;;28.10;21.33;;;-1.80;99.90;;;;;;6075381;23;20229;-80
2022/12/12 07:06:21;;;;;;;28.33;21.73;;;-1.90;99.90;;;;;;6083142;23;21543;-82
2022/12/12 07:08:50;;;;;;;28.67;20.75;;;-1.90;99.90;;;;;;6066990;23;20198;-81
2022/12/12 07:11:20;;;;;;;26.83;20.27;;;-1.90;99.90;;;;;;6073182;23;20199;-81
2022/12/12 07:13:50;;;;;;;26.25;20.20;;;-1.90;99.90;;;;;;6070271;23;20224;-81
2022/12/12 07:16:18;;;;;;;25.80;21.05;;;-1.90;99.90;;;;;;6045855;23;20230;-81
2022/12/12 07:18:46;;;;;;;28.60;21.20;;;-1.90;99.90;;;;;;6070608;23;20262;-81
2022/12/12 07:21:17;;;;;;;28.00;21.58;;;-1.90;99.90;;;;;;6069877;23;20260;-80
2022/12/12 07:23:45;;;;;;;28.17;22.23;;;-2.00;99.90;;;;;;6071823;23;20684;-80
2022/12/12 07:26:14;;;;;;;27.27;21.25;;;-2.00;99.90;;;;;;6071361;23;20245;-81
2022/12/12 07:28:42;;;;;;;29.10;21.30;;;-2.00;99.90;;;;;;6068538;23;20670;-80
2022/12/12 07:31:12;;;;;;;28.88;22.27;;;-2.00;99.90;;;;;;6067357;23;20219;-80
2022/12/12 07:33:40;;;;;;;32.80;24.67;;;-2.00;99.90;;;;;;6071049;23;20189;-81
2022/12/12 07:36:08;;;;;;;28.02;21.30;;;-2.00;99.90;;;;;;6071680;23;20284;-81
2022/12/12 07:38:37;;;;;;;30.33;22.65;;;-2.10;99.90;;;;;;6043188;23;21597;-81
2022/12/12 07:41:08;;;;;;;27.90;22.17;;;-2.10;99.90;;;;;;6068156;23;20243;-80
2022/12/12 07:43:36;;;;;;;32.42;23.52;;;-2.00;99.90;;;;;;6070126;23;20688;-81
2022/12/12 07:46:06;;;;;;;29.33;22.35;;;-2.00;99.90;;;;;;6070389;23;20198;-81
2022/12/12 07:48:33;;;;;;;27.05;22.90;;;-2.00;99.90;;;;;;6069036;23;20188;-81
2022/12/12 07:51:02;;;;;;;29.50;22.80;;;-1.90;99.90;;;;;;6068649;23;20225;-80
2022/12/12 07:53:30;;;;;;;30.42;22.73;;;-1.90;99.90;;;;;;6036880;23;20189;-81
2022/12/12 07:55:59;;;;;;;29.20;23.13;;;-1.90;99.90;;;;;;6070145;23;20204;-81
2022/12/12 07:58:26;;;;;;;28.58;22.60;;;-1.80;99.90;;;;;;6068135;23;21436;-80
2022/12/12 08:00:55;;;;;;;32.78;21.98;;;-1.80;99.90;;;;;;6067793;23;20195;-81
2022/12/12 08:03:22;;;;;;;30.63;23.20;;;-1.70;99.90;;;;;;6067454;23;20197;-81
2022/12/12 08:05:50;;;;;;;33.17;24.15;;;-1.70;99.90;;;;;;6077949;23;20199;-81
2022/12/12 08:08:18;;;;;;;29.38;23.55;;;-1.70;99.90;;;;;;6069531;23;20211;-81
2022/12/12 08:10:45;;;;;;;28.25;22.40;;;-1.60;99.90;;;;;;6070867;23;20200;-81
2022/12/12 08:13:15;;;;;;;28.77;21.88;;;-1.60;99.90;;;;;;6072503;23;20654;-80
2022/12/12 08:15:43;;;;;;;27.35;22.35;;;-1.50;99.90;;;;;;6072783;23;20234;-80
2022/12/12 08:18:10;;;;;;;29.00;22.48;;;-1.50;99.90;;;;;;6072054;23;20208;-80
2022/12/12 08:20:40;;;;;;;30.65;23.25;;;-1.40;99.90;;;;;;6068354;23;20452;-80
2022/12/12 08:23:07;;;;;;;30.08;23.33;;;-1.30;99.90;;;;;;6069164;23;21116;-81
2022/12/12 08:25:36;;;;;;;31.27;22.98;;;-1.30;99.90;;;;;;6083967;23;20275;-80
2022/12/12 08:28:04;;;;;;;26.70;21.15;;;-1.20;99.90;;;;;;6081048;23;20824;-81
2022/12/12 08:30:32;;;;;;;25.08;20.38;;;-1.20;99.90;;;;;;6060123;23;20183;-80
2022/12/12 08:32:59;;;;;;;27.90;22.05;;;-1.20;99.90;;;;;;6085121;23;20208;-80
2022/12/12 08:35:29;;;;;;;31.55;23.05;;;-1.30;99.90;;;;;;6081843;23;20200;-80
2022/12/12 08:37:56;;;;;;;28.92;22.17;;;-1.30;99.90;;;;;;6059528;23;20967;-81
2022/12/12 08:40:23;;;;;;;27.38;21.13;;;-1.30;99.90;;;;;;6078162;23;21458;-81
2022/12/12 08:42:51;;;;;;;30.10;21.83;;;-1.20;99.90;;;;;;6072939;23;20199;-81
2022/12/12 08:45:18;;;;;;;28.50;21.55;;;-1.30;99.90;;;;;;6080321;23;21593;-81
2022/12/12 08:47:46;;;;;;;28.02;21.15;;;-1.30;99.90;;;;;;6084851;23;20273;-80
2022/12/12 08:50:15;;;;;;;30.58;22.50;;;-1.30;99.90;;;;;;6082386;23;20245;-80
2022/12/12 08:52:42;;;;;;;31.15;22.23;;;-1.20;99.90;;;;;;6075038;23;20968;-80
2022/12/12 08:55:09;;;;;;;28.20;21.70;;;-1.10;99.90;;;;;;6080688;23;20212;-82
2022/12/12 08:57:38;;;;;;;30.58;23.15;;;-1.20;99.90;;;;;;6080660;23;20212;-80
2022/12/12 09:00:07;;;;;;;30.77;23.98;;;-1.20;99.90;;;;;;6081373;23;20188;-81
2022/12/12 09:02:35;;;;;;;29.38;21.85;;;-1.10;99.90;;;;;;6074811;23;20193;-81
2022/12/12 09:05:04;;;;;;;29.55;21.40;;;-1.10;99.90;;;;;;6074819;23;20954;-81
2022/12/12 09:07:31;;;;;;;25.67;21.23;;;-1.10;99.90;;;;;;6070817;23;20208;-81
2022/12/12 09:09:59;;;;;;;27.70;21.45;;;-1.00;99.90;;;;;;6085928;23;20196;-81
2022/12/12 09:12:26;;;;;;;28.45;20.25;;;-0.90;99.90;;;;;;6088681;23;20257;-81
2022/12/12 09:14:55;;;;;;;28.95;21.92;;;-0.90;99.90;;;;;;6095072;23;20235;-81
2022/12/12 09:17:23;;;;;;;29.35;20.45;;;-0.80;99.90;;;;;;6091991;23;20239;-81
2022/12/12 09:19:50;;;;;;;28.08;21.70;;;-0.70;99.90;;;;;;6093530;23;20192;-81
2022/12/12 09:22:19;;;;;;;29.70;21.77;;;-0.60;99.90;;;;;;6078411;23;20203;-81
2022/12/12 09:24:48;;;;;;;30.50;21.85;;;-0.70;99.90;;;;;;6084752;23;20188;-81
2022/12/12 09:27:15;;;;;;;26.95;21.55;;;-0.60;99.90;;;;;;6060264;23;20191;-81
2022/12/12 09:29:43;;;;;;;27.60;22.45;;;-0.50;99.90;;;;;;6082214;23;20267;-81
2022/12/12 09:32:10;;;;;;;29.95;23.50;;;-0.40;99.90;;;;;;6060018;23;20274;-81
2022/12/12 09:34:38;;;;;;;28.55;21.30;;;-0.30;99.90;;;;;;6087534;23;20198;-81
2022/12/12 09:37:07;;;;;;;27.13;20.35;;;-0.20;99.90;;;;;;6057278;23;20521;-81
2022/12/12 09:39:36;;;;;;;28.02;20.55;;;-0.10;99.90;;;;;;6079859;23;20258;-80
2022/12/12 09:42:12;;;;;;;31.48;21.70;;;-0.10;99.90;;;;;;6076976;23;20192;-81
2022/12/12 09:44:39;;;;;;;28.50;21.27;;;-0.10;99.90;;;;;;6083966;23;20553;-81
2022/12/12 09:47:12;;;;;;;31.45;23.58;;;0.00;99.90;;;;;;6092369;23;20192;-81
2022/12/12 09:49:45;;;;;;;27.60;21.88;;;0.20;99.90;;;;;;6086263;23;20189;-81
2022/12/12 09:52:15;;;;;;;26.95;21.52;;;0.20;99.90;;;;;;6078787;23;20197;-80
2022/12/12 09:54:44;;;;;;;30.05;21.92;;;0.30;99.90;;;;;;6089132;23;20562;-81
2022/12/12 09:57:26;;;;;;;25.10;19.30;;;0.20;99.90;;;;;;6088290;23;20260;-81
2022/12/12 09:59:58;;;;;;;28.48;21.15;;;0.30;99.90;;;;;;6076410;23;20638;-81
2022/12/12 10:02:48;;;;;;;27.92;21.42;;;0.30;99.90;;;;;;6087445;23;20212;-81
2022/12/12 10:05:25;;;;;;;27.92;20.30;;;0.30;99.90;;;;;;6083269;23;20200;-81
2022/12/12 10:07:59;;;;;;;26.95;20.73;;;0.30;99.90;;;;;;6083996;23;20248;-80
2022/12/12 10:10:32;;;;;;;25.83;19.90;;;0.30;99.90;;;;;;6089929;23;20188;-81
2022/12/12 10:13:03;;;;;;;28.27;21.10;;;0.30;99.90;;;;;;6085184;23;20926;-81
2022/12/12 10:15:35;;;;;;;26.95;20.92;;;0.30;99.90;;;;;;6095801;23;20585;-80
2022/12/12 10:18:07;;;;;;;25.77;21.05;;;0.40;99.90;;;;;;6090617;23;20217;-80
2022/12/12 10:20:43;;;;;;;26.92;20.98;;;0.70;99.90;;;;;;6083672;23;20696;-80
2022/12/12 10:23:23;;;;;;;23.80;20.35;;;1.20;99.90;;;;;;6078983;23;20289;-81
2022/12/12 10:25:57;;;;;;;25.50;20.25;;;2.00;99.90;;;;;;6085581;23;20214;-81
2022/12/12 10:28:29;;;;;;;26.42;20.85;;;2.30;99.90;;;;;;6090637;23;20681;-81
2022/12/12 10:31:24;;;;;;;24.42;19.55;;;2.50;99.90;;;;;;6082674;23;20188;-81
2022/12/12 10:34:05;;;;;;;23.58;19.85;;;2.90;99.90;;;;;;6086546;23;20294;-81
2022/12/12 10:36:52;;;;;;;21.77;18.98;;;3.40;99.90;;;;;;6079146;23;20283;-80
2022/12/12 10:39:30;;;;;;;21.13;18.73;;;4.10;99.90;;;;;;6061015;23;20245;-82
2022/12/12 10:42:04;;;;;;;24.55;19.35;;;4.30;99.90;;;;;;6069533;23;20188;-78
2022/12/12 10:44:56;;;;;;;23.48;20.20;;;4.50;99.90;;;;;;6055890;23;20288;-79
2022/12/12 10:47:25;;;;;;;25.23;19.83;;;4.70;99.90;;;;;;6086711;23;20626;-81
2022/12/12 10:49:58;;;;;;;22.70;18.45;;;4.80;99.90;;;;;;6097174;23;20230;-79
2022/12/12 10:52:27;;;;;;;27.83;21.60;;;4.80;99.90;;;;;;6087296;23;20615;-80
2022/12/12 10:54:58;;;;;;;21.67;19.48;;;4.70;99.90;;;;;;6093014;23;20207;-80
2022/12/12 10:57:28;;;;;;;21.63;19.00;;;4.70;99.90;;;;;;6080921;23;20311;-80
2022/12/12 10:59:57;;;;;;;20.90;18.73;;;4.90;99.90;;;;;;6102289;23;20204;-79
2022/12/12 11:02:34;;;;;;;21.95;19.55;;;5.10;99.90;;;;;;6096975;23;20199;-80
2022/12/12 11:05:16;;;;;;;19.88;17.80;;;5.30;99.90;;;;;;6088507;23;20203;-81
2022/12/12 11:07:45;;;;;;;21.33;18.50;;;5.60;99.90;;;;;;6084730;23;20861;-80
2022/12/12 11:10:26;;;;;;;21.60;18.38;;;5.70;99.90;;;;;;6079798;23;20184;-79
2022/12/12 11:13:00;;;;;;;21.83;19.25;;;5.90;99.90;;;;;;6086683;23;20196;-79
2022/12/12 11:15:37;;;;;;;22.02;19.17;;;6.10;99.90;;;;;;6076103;23;20187;-79
2022/12/12 11:18:05;;;;;;;20.38;18.15;;;6.20;99.90;;;;;;6074405;23;20248;-76
2022/12/12 11:20:33;;;;;;;23.90;20.23;;;6.40;99.90;;;;;;6081870;23;20227;-79
2022/12/12 11:23:01;;;;;;;20.33;18.13;;;6.60;99.90;;;;;;6086058;23;20265;-79
2022/12/12 11:25:32;;;;;;;23.98;19.45;;;6.40;99.90;;;;;;6051447;23;20706;-80
2022/12/12 11:28:03;;;;;;;20.83;18.63;;;6.30;99.90;;;;;;6082408;23;20500;-79
2022/12/12 11:30:35;;;;;;;20.15;18.00;;;6.40;99.90;;;;;;6085627;23;20192;-79
2022/12/12 11:33:04;;;;;;;19.10;17.10;;;6.30;99.90;;;;;;6079362;23;20270;-78
2022/12/12 11:35:35;;;;;;;21.80;18.40;;;6.30;99.90;;;;;;6088314;23;20218;-79
2022/12/12 11:38:07;;;;;;;22.92;19.95;;;6.20;99.90;;;;;;6073056;23;20216;-79
2022/12/12 11:40:39;;;;;;;20.80;18.65;;;6.50;99.90;;;;;;6084820;23;20196;-80
2022/12/12 11:43:29;;;;;;;21.13;18.92;;;6.90;99.90;;;;;;6082224;23;20194;-78
2022/12/12 11:46:03;;;;;;;23.85;20.33;;;7.50;99.90;;;;;;6045013;23;20196;-79
2022/12/12 11:48:40;;;;;;;21.55;19.35;;;7.80;99.90;;;;;;6082384;23;20266;-79
2022/12/12 11:51:09;;;;;;;22.75;20.42;;;8.10;99.90;;;;;;6082889;23;20236;-79
2022/12/12 11:53:39;;;;;;;21.98;19.35;;;8.60;99.90;;;;;;6078042;23;20188;-79
2022/12/12 11:56:33;;;;;;;20.88;18.67;;;8.80;99.90;;;;;;6061363;23;20215;-79
2022/12/12 11:59:26;;;;;;;19.70;17.70;;;9.00;99.90;;;;;;6073789;23;20212;-79
2022/12/12 12:02:10;;;;;;;20.40;18.48;;;9.20;99.90;;;;;;6068011;23;20199;-79
2022/12/12 12:04:51;;;;;;;19.35;17.42;;;9.50;99.90;;;;;;6055782;23;20192;-80
2022/12/12 12:07:32;;;;;;;22.27;19.08;;;9.50;99.90;;;;;;6080716;23;20215;-79
2022/12/12 12:10:07;;;;;;;20.77;18.67;;;9.50;99.90;;;;;;6073917;23;20180;-79
2022/12/12 12:12:44;;;;;;;21.63;19.33;;;9.30;99.90;;;;;;6075898;23;20200;-78
2022/12/12 12:15:32;;;;;;;22.17;19.83;;;9.00;99.90;;;;;;6079845;23;20188;-79
2022/12/12 12:18:21;;;;;;;23.63;19.65;;;9.00;99.90;;;;;;6086174;23;20575;-80
2022/12/12 12:21:14;;;;;;;20.98;18.88;;;9.10;99.90;;;;;;6057772;23;20214;-79
2022/12/12 12:23:46;;;;;;;21.33;19.13;;;9.30;99.90;;;;;;6079130;23;20227;-79
2022/12/12 12:26:22;;;;;;;21.48;19.27;;;9.50;99.90;;;;;;6057444;23;20287;-80
2022/12/12 12:29:24;;;;;;;23.20;20.88;;;9.70;99.90;;;;;;6082730;23;20206;-78
2022/12/12 12:32:05;;;;;;;21.33;19.23;;;9.80;99.50;;;;;;6080185;23;20205;-76
2022/12/12 12:34:43;;;;;;;22.38;20.15;;;9.50;99.20;;;;;;6084996;23;20192;-76
2022/12/12 12:37:21;;;;;;;22.05;19.85;;;9.30;99.60;;;;;;6084165;23;20196;-76
2022/12/12 12:39:59;;;;;;;21.88;19.77;;;9.10;99.70;;;;;;6070313;23;20275;-76
2022/12/12 12:42:42;;;;;;;21.88;19.63;;;8.90;99.90;;;;;;6083924;23;20843;-76
2022/12/12 12:45:18;;;;;;;21.60;19.35;;;8.90;99.90;;;;;;6074577;23;20215;-76
2022/12/12 12:47:52;;;;;;;20.15;18.15;;;8.80;99.50;;;;;;6064818;23;20209;-77
2022/12/12 12:50:23;;;;;;;22.13;19.25;;;8.60;99.60;;;;;;6080022;23;20191;-77
2022/12/12 12:52:56;;;;;;;19.05;17.15;;;8.50;99.90;;;;;;6073634;23;20197;-77
2022/12/12 12:55:29;;;;;;;22.17;19.98;;;8.30;99.40;;;;;;6087570;23;20273;-77
2022/12/12 12:57:58;;;;;;;21.23;19.13;;;8.00;99.90;;;;;;6083838;23;20187;-77
2022/12/12 13:00:28;;;;;;;23.95;21.27;;;7.70;99.90;;;;;;6061805;23;20200;-77
2022/12/12 13:03:06;;;;;;;23.30;20.88;;;7.50;99.90;;;;;;6054343;23;20209;-78